Time;durP1;ratioP1;P1;durP2;ratioP2;P2;SDS_P1;SDS_P2;PMS_P1;PMS_P2;Temp;Humidity;BMP_temperature;BMP_pressure;BME280_temperature;BME280_humidity;BME280_pressure;Samples;Min_cycle;Max_cycle;Signal;HPM_P1;HPM_P2
2021/12/19 00:17:04;;;;;;;12.98;8.95;;;;;;;20.69;nan;101047.59;20438040;28;100810;-56
2021/12/19 00:27:05;;;;;;;10.93;9.00;;;;;;;20.67;nan;101020.53;20413535;28;101011;-57
2021/12/19 00:37:07;;;;;;;12.50;9.27;;;;;;;20.65;nan;101009.25;20415105;28;99042;-56
2021/12/19 00:47:11;;;;;;;14.38;10.32;;;;;;;20.62;nan;101001.59;20411665;28;102138;-55
2021/12/19 00:57:12;;;;;;;13.45;10.18;;;;;;;20.61;nan;101015.69;20408492;28;100517;-57
2021/12/19 01:07:13;;;;;;;12.65;9.48;;;;;;;20.56;nan;100997.56;20402806;28;101775;-56
2021/12/19 01:17:13;;;;;;;13.55;9.80;;;;;;;20.55;nan;100979.25;20410362;28;98643;-58
2021/12/19 01:27:14;;;;;;;13.93;10.77;;;;;;;20.53;nan;100962.72;20409643;28;100001;-57
2021/12/19 01:37:18;;;;;;;13.15;10.43;;;;;;;20.51;nan;100962.81;20410133;28;100223;-57
2021/12/19 01:47:21;;;;;;;12.52;9.98;;;;;;;20.50;nan;100945.34;20409924;28;99029;-58
2021/12/19 01:57:24;;;;;;;15.03;11.43;;;;;;;20.46;nan;100907.88;20416286;28;101193;-57
2021/12/19 02:07:26;;;;;;;;;;;;;;;20.50;nan;100903.25;20408584;28;101070;-57
2021/12/19 02:17:26;;;;;;;14.52;11.40;;;;;;;20.42;nan;100901.13;20421746;27;101135;-57
2021/12/19 02:27:29;;;;;;;14.20;11.57;;;;;;;20.42;nan;100884.50;20480596;28;101038;-57
2021/12/19 02:57:56;;;;;;;15.90;12.27;;;;;;;20.37;nan;100832.19;20488674;28;99116;-57
2021/12/19 03:08:00;;;;;;;16.92;13.73;;;;;;;20.35;nan;100802.53;20438065;28;98384;-55
2021/12/19 03:18:06;;;;;;;17.85;13.60;;;;;;;20.34;nan;100784.25;20423516;28;100502;-57
2021/12/19 03:28:09;;;;;;;15.48;12.80;;;;;;;20.31;nan;100782.63;20448303;28;98850;-57
2021/12/19 03:38:13;;;;;;;;;;;;;;;20.36;nan;100777.06;20415423;28;98924;-56
2021/12/19 03:48:16;;;;;;;16.95;13.10;;;;;;;20.28;nan;100764.44;20419859;28;101993;-57
2021/12/19 03:58:18;;;;;;;15.33;12.37;;;;;;;20.27;nan;100753.06;20420917;28;100763;-57
2021/12/19 04:08:20;;;;;;;14.70;11.80;;;;;;;20.27;nan;100750.44;20419429;28;100853;-57
2021/12/19 04:18:22;;;;;;;15.10;11.45;;;;;;;20.26;nan;100768.97;20438117;28;97982;-56
2021/12/19 04:28:23;;;;;;;13.98;11.52;;;;;;;20.25;nan;100775.16;20467960;28;101414;-57
2021/12/19 05:19:47;;;;;;;15.60;12.40;;;;;;;20.34;nan;100656.19;20412659;28;101134;-57
2021/12/19 05:29:49;;;;;;;19.30;14.38;;;;;;;20.45;nan;100652.81;20414040;28;102725;-58
2021/12/19 05:50:09;;;;;;;21.45;16.52;;;;;;;20.61;nan;100639.44;20436832;28;99013;-57
2021/12/19 06:00:16;;;;;;;24.80;17.88;;;;;;;20.71;nan;100635.19;20416821;28;99592;-57
2021/12/19 06:10:17;;;;;;;26.75;18.58;;;;;;;20.79;nan;100632.88;20441975;28;98027;-57
2021/12/19 06:20:18;;;;;;;27.73;19.40;;;;;;;20.87;nan;100626.22;20462211;28;101789;-56
2021/12/19 06:30:19;;;;;;;26.70;20.38;;;;;;;20.93;nan;100605.56;20429863;28;100221;-57
2021/12/19 06:40:21;;;;;;;30.98;23.20;;;;;;;21.03;nan;100612.78;20443947;28;101682;-57
2021/12/19 06:50:24;;;;;;;30.17;20.52;;;;;;;21.21;nan;100594.78;20430413;28;101325;-57
2021/12/19 07:00:25;;;;;;;38.17;23.50;;;;;;;21.30;nan;100588.84;20426838;28;103687;-57
2021/12/19 07:10:26;;;;;;;62.60;22.33;;;;;;;21.42;nan;100573.91;20423647;28;100097;-58
2021/12/19 07:20:31;;;;;;;44.08;22.20;;;;;;;21.55;nan;100579.91;20426309;28;101669;-57
2021/12/19 07:30:37;;;;;;;36.65;23.00;;;;;;;21.76;nan;100576.63;20423628;28;99066;-58
2021/12/19 07:40:46;;;;;;;39.30;25.63;;;;;;;21.82;nan;100556.88;20417145;28;98371;-58
2021/12/19 07:50:47;;;;;;;36.55;22.65;;;;;;;22.01;nan;100551.84;20428148;28;99931;-55
2021/12/19 08:00:48;;;;;;;29.17;20.05;;;;;;;21.98;nan;100545.97;20420634;28;102463;-58
2021/12/19 08:20:50;;;;;;;26.85;13.82;;;;;;;21.69;nan;100514.81;20424931;28;101943;-56
2021/12/19 08:30:51;;;;;;;24.50;13.02;;;;;;;21.84;nan;100494.34;20426503;28;98550;-56
2021/12/19 08:40:53;;;;;;;20.77;11.73;;;;;;;21.83;nan;100476.84;20424983;28;104494;-57
2021/12/19 08:50:54;;;;;;;19.70;9.50;;;;;;;21.82;nan;100456.72;20430441;28;99434;-57
2021/12/19 09:01:01;;;;;;;19.02;9.15;;;;;;;21.86;nan;100458.13;20423785;28;99889;-56
2021/12/19 09:11:02;;;;;;;20.60;8.85;;;;;;;21.89;nan;100455.28;20425904;28;102228;-56
2021/12/19 09:21:02;;;;;;;25.20;9.98;;;;;;;21.96;nan;100437.16;20427953;28;101596;-57
2021/12/19 09:31:03;;;;;;;18.05;6.38;;;;;;;22.03;nan;100428.66;20424413;28;101423;-57
2021/12/19 09:41:13;;;;;;;9.43;5.78;;;;;;;22.05;nan;100404.78;20413412;28;101906;-58
2021/12/19 09:51:18;;;;;;;22.25;8.07;;;;;;;22.19;nan;100372.84;20414413;28;98775;-57
2021/12/19 10:01:18;;;;;;;18.88;8.32;;;;;;;22.31;nan;100349.06;20422878;28;99257;-57
2021/12/19 10:11:45;;;;;;;27.63;9.15;;;;;;;22.18;nan;100352.72;20414584;28;97838;-57
2021/12/19 10:21:46;;;;;;;11.25;6.32;;;;;;;21.45;nan;100349.75;20423939;28;98379;-57
2021/12/19 10:32:04;;;;;;;6.93;5.03;;;;;;;19.87;nan;100340.53;20420116;28;97871;-56
2021/12/19 10:42:05;;;;;;;6.53;4.20;;;;;;;20.71;nan;100314.16;20405570;28;97586;-57
2021/12/19 10:52:07;;;;;;;10.93;4.93;;;;;;;20.94;nan;100295.78;20438610;28;101354;-58
2021/12/19 11:02:07;;;;;;;7.85;4.95;;;;;;;21.26;nan;100277.47;20444511;28;100482;-57
2021/12/19 11:12:11;;;;;;;15.00;8.70;;;;;;;21.62;nan;100295.75;20516788;28;97541;-57
2021/12/19 11:22:14;;;;;;;15.30;8.90;;;;;;;21.36;nan;100309.19;20512186;28;97649;-55
2021/12/19 11:32:20;;;;;;;15.00;10.40;;;;;;;21.35;nan;100289.06;20512890;28;99735;-56
2021/12/19 11:42:41;;;;;;;23.75;11.45;;;;;;;21.48;nan;100296.00;20509189;28;99907;-57
2021/12/19 11:52:41;;;;;;;27.00;14.05;;;;;;;21.61;nan;100299.34;20500944;28;98397;-56
2021/12/19 12:02:43;;;;;;;20.05;12.27;;;;;;;21.67;nan;100283.03;20505598;28;98919;-57
2021/12/19 12:12:50;;;;;;;21.50;11.30;;;;;;;21.85;nan;100288.59;20506927;28;101878;-57
2021/12/19 12:22:54;;;;;;;17.45;11.10;;;;;;;21.94;nan;100263.28;20503312;28;97847;-58
2021/12/19 12:33:00;;;;;;;28.23;14.55;;;;;;;22.14;nan;100268.69;20505126;28;97781;-57
2021/12/19 12:43:09;;;;;;;34.67;18.23;;;;;;;22.20;nan;100247.94;20502649;28;99044;-58
2021/12/19 12:53:10;;;;;;;28.30;18.63;;;;;;;22.31;nan;100241.72;20503088;28;101323;-58
2021/12/19 13:03:30;;;;;;;31.10;17.10;;;;;;;22.17;nan;100250.81;20497209;28;100025;-58
2021/12/19 13:13:31;;;;;;;26.02;15.98;;;;;;;22.12;nan;100224.00;20506058;28;100521;-57
2021/12/19 13:23:32;;;;;;;30.23;15.38;;;;;;;22.13;nan;100201.09;20504344;28;100172;-58
2021/12/19 13:33:34;;;;;;;23.00;14.30;;;;;;;22.14;nan;100210.69;20500303;28;98865;-58
2021/12/19 13:43:38;;;;;;;21.13;14.20;;;;;;;22.10;nan;100194.28;20501271;28;99666;-57
2021/12/19 13:53:42;;;;;;;20.77;14.13;;;;;;;22.07;nan;100203.28;20506865;28;98720;-58
2021/12/19 14:03:46;;;;;;;21.17;13.63;;;;;;;22.08;nan;100164.56;20498798;28;101731;-57
2021/12/19 14:14:07;;;;;;;18.02;11.02;;;;;;;22.04;nan;100169.25;20501112;28;98556;-59
2021/12/19 14:24:12;;;;;;;23.42;11.60;;;;;;;22.19;nan;100153.09;20495349;28;99176;-58
2021/12/19 14:34:31;;;;;;;16.48;10.82;;;;;;;22.20;nan;100144.22;20506159;28;100939;-56
2021/12/19 14:44:32;;;;;;;16.63;10.82;;;;;;;22.19;nan;100124.94;20502631;28;102021;-58
2021/12/19 14:54:33;;;;;;;16.15;10.20;;;;;;;22.16;nan;100141.03;20503309;27;98276;-58
2021/12/19 15:04:34;;;;;;;19.65;9.07;;;;;;;22.10;nan;100146.00;20496283;28;101616;-58
2021/12/19 15:14:34;;;;;;;13.68;8.52;;;;;;;22.20;nan;100131.91;20508802;28;100717;-57
2021/12/19 15:24:36;;;;;;;15.75;8.70;;;;;;;22.25;nan;100120.09;20501581;28;99035;-57
2021/12/19 15:34:39;;;;;;;13.05;9.45;;;;;;;22.26;nan;100096.22;20512288;28;99005;-56
2021/12/19 15:44:40;;;;;;;;;;;;;;;22.28;nan;100073.19;20510226;28;101276;-57
2021/12/19 15:54:42;;;;;;;13.50;9.33;;;;;;;22.33;nan;100078.91;20509174;28;98885;-57
2021/12/19 16:04:46;;;;;;;11.17;8.50;;;;;;;22.31;nan;100082.66;20507238;28;100425;-57
2021/12/19 16:14:47;;;;;;;11.57;8.10;;;;;;;22.31;nan;100062.38;20508828;28;98974;-57
2021/12/19 16:24:48;;;;;;;12.10;8.65;;;;;;;22.32;nan;100061.41;20506034;28;98178;-57
2021/12/19 16:34:49;;;;;;;12.48;9.63;;;;;;;22.28;nan;100052.09;20513006;28;99708;-57
2021/12/19 16:44:51;;;;;;;11.45;8.27;;;;;;;22.29;nan;100066.09;20502043;28;101537;-58
2021/12/19 16:54:52;;;;;;;15.07;8.47;;;;;;;22.29;nan;100071.38;20505489;28;99632;-57
2021/12/19 17:04:52;;;;;;;13.30;8.32;;;;;;;22.28;nan;100065.28;20504976;28;99982;-57
2021/12/19 17:14:54;;;;;;;9.82;7.40;;;;;;;22.31;nan;100064.19;20502306;28;98957;-58
2021/12/19 17:24:55;;;;;;;10.50;7.53;;;;;;;22.27;nan;100039.88;20499385;28;101273;-56
2021/12/19 17:34:57;;;;;;;10.83;7.00;;;;;;;22.30;nan;100042.25;20495483;28;101644;-57
2021/12/19 17:44:57;;;;;;;16.60;6.97;;;;;;;22.26;nan;100035.56;20503292;28;99482;-56
2021/12/19 17:54:58;;;;;;;13.48;7.28;;;;;;;22.33;nan;100041.97;20505790;28;101556;-56
2021/12/19 18:05:02;;;;;;;13.65;6.68;;;;;;;22.27;nan;100031.16;20513400;28;99247;-57
2021/12/19 18:15:04;;;;;;;35.13;14.93;;;;;;;22.30;nan;100020.31;20511747;28;101312;-57
2021/12/19 18:25:06;;;;;;;;;;;;;;;22.26;nan;100006.56;20512642;28;97708;-58
2021/12/19 18:35:07;;;;;;;38.67;16.80;;;;;;;22.21;nan;100027.22;20520424;28;102054;-57
2021/12/19 18:45:18;;;;;;;33.13;13.85;;;;;;;22.22;nan;100024.44;20518633;28;101367;-58
2021/12/19 18:55:30;;;;;;;30.75;12.35;;;;;;;22.19;nan;100015.97;20522542;28;98930;-58
2021/12/19 19:05:33;;;;;;;25.10;10.30;;;;;;;22.17;nan;99999.47;20521854;28;102401;-57
2021/12/19 19:15:34;;;;;;;21.70;9.30;;;;;;;22.18;nan;100003.75;20520058;28;97947;-57
2021/12/19 19:25:35;;;;;;;18.27;7.75;;;;;;;22.15;nan;99998.75;20519622;28;97773;-57
2021/12/19 19:35:37;;;;;;;14.23;7.25;;;;;;;22.18;nan;99998.47;20522040;28;98625;-58
2021/12/19 19:55:59;;;;;;;12.15;6.22;;;;;;;22.10;nan;99996.53;20515278;28;102420;-57
2021/12/19 20:05:59;;;;;;;10.65;5.45;;;;;;;22.01;nan;100006.06;20501320;28;98421;-58
2021/12/19 20:16:00;;;;;;;13.20;4.82;;;;;;;21.90;nan;99996.47;20502000;28;99125;-57
2021/12/19 20:26:02;;;;;;;14.00;4.85;;;;;;;21.74;nan;99985.59;20509780;28;99278;-56
2021/12/19 20:36:03;;;;;;;12.20;4.67;;;;;;;21.67;nan;99973.91;20516278;28;97480;-57
2021/12/19 20:46:05;;;;;;;7.38;4.35;;;;;;;21.57;nan;99969.41;20516733;28;98395;-57
2021/12/19 20:56:08;;;;;;;11.47;4.30;;;;;;;21.48;nan;99979.88;20511633;28;98380;-56
2021/12/19 21:06:08;;;;;;;8.17;3.53;;;;;;;21.40;nan;99944.47;20515483;28;102211;-57
2021/12/19 21:26:30;;;;;;;9.25;3.03;;;;;;;21.27;nan;99957.03;20507417;28;101687;-57
2021/12/19 21:46:50;;;;;;;6.38;3.10;;;;;;;21.15;nan;99960.69;20500165;28;97585;-57
2021/12/19 21:56:50;;;;;;;4.57;2.97;;;;;;;21.09;nan;99944.47;20517855;28;98864;-58
2021/12/19 22:06:52;;;;;;;5.28;2.97;;;;;;;21.02;nan;99955.63;20509255;28;100053;-58
2021/12/19 22:16:53;;;;;;;4.63;2.70;;;;;;;20.99;nan;99930.38;20511278;28;98686;-57
2021/12/19 22:26:58;;;;;;;3.17;2.45;;;;;;;20.97;nan;99942.00;20508583;28;102190;-58
2021/12/19 22:36:59;;;;;;;3.63;2.40;;;;;;;20.93;nan;99941.44;20517805;28;97871;-56
2021/12/19 22:47:00;;;;;;;4.07;2.42;;;;;;;20.90;nan;99936.44;20520072;28;98658;-58
2021/12/19 22:57:02;;;;;;;3.13;2.20;;;;;;;20.87;nan;99934.91;20517378;28;101022;-58
2021/12/19 23:07:06;;;;;;;3.67;2.30;;;;;;;20.84;nan;99910.63;20508488;28;99083;-57
2021/12/19 23:17:23;;;;;;;3.28;2.30;;;;;;;20.78;nan;99894.38;20517970;28;97592;-56
2021/12/19 23:27:24;;;;;;;2.58;2.15;;;;;;;20.75;nan;99884.13;20517785;28;97397;-55
2021/12/19 23:37:37;;;;;;;3.97;2.28;;;;;;;20.70;nan;99873.13;20516147;28;101767;-57
2021/12/19 23:47:37;;;;;;;4.17;1.97;;;;;;;20.69;nan;99870.59;20514068;27;99538;-56
2021/12/19 23:57:39;;;;;;;2.25;2.05;;;;;;;20.67;nan;99883.06;20513849;28;97798;-58
